Impacts METAR Board
IDs:

KTPA - Tampa Intl Arpt, FL, US

Updated at: 1800 UTC 24 Jun 2018
Potential Impact None Slight Moderate High
Time 24/06Z 24/07Z 24/08Z 24/09Z 24/10Z 24/11Z 24/12Z 24/13Z 24/14Z 24/15Z 24/16Z 24/17Z 24/18Z
Temp82 81 82 82 81 81 83 86 87 87 89 90 92
Dewpt75 75 75 75 74 74 75 75 75 76 73 71 70
Altim30.03 30.01 30.00 30.00 30.01 30.03 30.05 30.06 30.06 30.07 30.07 30.04 30.03
VIS10 10 10 10 10 10 10 10 10 10 10 10 10
CIG-- -- -- -- -- -- -- -- 250 34 45 45 45
CoverSCTSCTSCTSCTFEWFEWFEWSCTBKNBKNBKNBKNBKN
FltCatVFRVFRVFRVFRVFRVFRVFRVFRVFRVFRVFRVFRVFR
WX--------------------------
WDir150000000026024027010350
WSpd3 0 0 0 0 0 0 0 4 5 6 7 10
WGst-- -- -- -- -- -- -- -- -- -- -- -- --
Raw hourly METARs
KTPA 240553Z 15003KT 10SM FEW028TCU SCT250 28/24 A3003 RMK AO2 SLP167 TCU W T02780239 10311 20278 50000
KTPA 240653Z 00000KT 10SM FEW025TCU SCT250 27/24 A3001 RMK AO2 SLP163 TCU SW T02720239
KTPA 240753Z 00000KT 10SM FEW025 SCT250 28/24 A3000 RMK AO2 SLP158 T02780239
KTPA 240853Z 00000KT 10SM FEW025 SCT250 28/24 A3000 RMK AO2 SLP157 T02780239 56009
KTPA 240953Z 00000KT 10SM FEW025 FEW250 27/23 A3001 RMK AO2 SLP161 T02720233
KTPA 241053Z 00000KT 10SM FEW025 FEW250 27/23 A3003 RMK AO2 SLP169 CB DSNT S T02720233
KTPA 241153Z 00000KT 10SM FEW025 FEW250 28/24 A3005 RMK AO2 SLP175 CB DSNT S TCU DSNT SW T02830239 10283 20267 53018
KTPA 241253Z 00000KT 10SM FEW026 SCT250 30/24 A3006 RMK AO2 LTG DSNT S SLP179 CB DSNT S-SW T03000239
KTPA 241353Z 26004KT 10SM SCT028 BKN250 31/24 A3006 RMK AO2 SLP177 CB DSNT S T03060239
KTPA 241453Z 24005KT 10SM FEW022 BKN034 BKN250 31/24 A3007 RMK AO2 SLP180 CB DSNT S-SW TCU BLDG ALQDS T03060244 51005
KTPA 241553Z 27006KT 10SM BKN045 BKN200 32/23 A3007 RMK AO2 SLP181 CB DSNT S-SW TCU BLDG ALQDS T03170228
KTPA 241653Z 01007KT 10SM BKN045 BKN250 32/22 A3004 RMK AO2 LTG DSNT SE SLP173 CB DSNT S T03220217
KTPA 241753Z 35010KT 10SM BKN045 BKN250 33/21 A3003 RMK AO2 SLP167 CB DSNT SE-S SHRA SE AND DSNT S T03330211 10350 20283 58013



Page loaded:  18:30 UTC  |   11:30 AM Pacific  |   12:30 PM Mountain  |   01:30 PM Central  |   02:30 PM Eastern

 

ADVISORIES

FORECASTS

FORECASTS

OBSERVATIONS

USER TOOLS

ABOUT US